sensor_id;sensor_type;location;lat;lon;timestamp;temperature;humidity
12688;DHT22;6408;59.388;17.798;2022-09-03T00:02:01;7.90;99.90
12688;DHT22;6408;59.388;17.798;2022-09-03T00:04:33;7.90;99.90
12688;DHT22;6408;59.388;17.798;2022-09-03T00:07:12;7.90;99.90
12688;DHT22;6408;59.388;17.798;2022-09-03T00:09:48;7.80;99.90
12688;DHT22;6408;59.388;17.798;2022-09-03T00:12:20;7.90;99.90
12688;DHT22;6408;59.388;17.798;2022-09-03T00:14:52;7.80;99.90
12688;DHT22;6408;59.388;17.798;2022-09-03T00:17:26;7.90;99.90
12688;DHT22;6408;59.388;17.798;2022-09-03T00:20:02;7.90;99.90
12688;DHT22;6408;59.388;17.798;2022-09-03T00:22:36;7.90;99.90
12688;DHT22;6408;59.388;17.798;2022-09-03T00:25:22;8.00;99.90
12688;DHT22;6408;59.388;17.798;2022-09-03T00:27:56;8.20;99.90
12688;DHT22;6408;59.388;17.798;2022-09-03T00:30:24;8.20;99.90
12688;DHT22;6408;59.388;17.798;2022-09-03T00:32:57;8.30;99.90
12688;DHT22;6408;59.388;17.798;2022-09-03T00:35:28;8.40;99.90
12688;DHT22;6408;59.388;17.798;2022-09-03T00:41:02;8.50;99.90
12688;DHT22;6408;59.388;17.798;2022-09-03T00:43:49;8.50;99.90
12688;DHT22;6408;59.388;17.798;2022-09-03T00:46:28;8.50;99.90
12688;DHT22;6408;59.388;17.798;2022-09-03T00:49:10;8.50;99.90
12688;DHT22;6408;59.388;17.798;2022-09-03T00:51:44;8.40;99.90
12688;DHT22;6408;59.388;17.798;2022-09-03T00:54:26;8.40;99.90
12688;DHT22;6408;59.388;17.798;2022-09-03T00:57:05;8.40;99.90
12688;DHT22;6408;59.388;17.798;2022-09-03T00:59:40;8.50;99.90
12688;DHT22;6408;59.388;17.798;2022-09-03T01:02:19;8.60;99.90
12688;DHT22;6408;59.388;17.798;2022-09-03T01:05:02;8.60;99.90
12688;DHT22;6408;59.388;17.798;2022-09-03T01:07:39;8.70;99.90
12688;DHT22;6408;59.388;17.798;2022-09-03T01:10:17;8.70;99.90
12688;DHT22;6408;59.388;17.798;2022-09-03T01:12:53;8.70;99.90
12688;DHT22;6408;59.388;17.798;2022-09-03T01:15:28;8.80;99.90
12688;DHT22;6408;59.388;17.798;2022-09-03T01:18:06;8.80;99.90
12688;DHT22;6408;59.388;17.798;2022-09-03T01:20:50;8.90;99.90
12688;DHT22;6408;59.388;17.798;2022-09-03T01:26:48;8.80;99.90
12688;DHT22;6408;59.388;17.798;2022-09-03T01:29:26;8.90;99.90
12688;DHT22;6408;59.388;17.798;2022-09-03T01:32:03;8.90;99.90
12688;DHT22;6408;59.388;17.798;2022-09-03T01:34:42;8.90;99.90
12688;DHT22;6408;59.388;17.798;2022-09-03T01:37:17;8.90;99.90
12688;DHT22;6408;59.388;17.798;2022-09-03T01:39:59;8.90;99.90
12688;DHT22;6408;59.388;17.798;2022-09-03T01:42:35;9.00;99.90
12688;DHT22;6408;59.388;17.798;2022-09-03T01:45:36;8.90;99.90
12688;DHT22;6408;59.388;17.798;2022-09-03T01:48:29;8.90;99.90
12688;DHT22;6408;59.388;17.798;2022-09-03T01:51:05;9.00;99.90
12688;DHT22;6408;59.388;17.798;2022-09-03T01:53:53;9.10;99.90
12688;DHT22;6408;59.388;17.798;2022-09-03T01:56:32;9.10;99.90
12688;DHT22;6408;59.388;17.798;2022-09-03T01:59:06;9.10;99.90
12688;DHT22;6408;59.388;17.798;2022-09-03T02:01:44;9.10;99.90
12688;DHT22;6408;59.388;17.798;2022-09-03T02:04:18;9.10;99.90
12688;DHT22;6408;59.388;17.798;2022-09-03T02:06:48;9.10;99.90
12688;DHT22;6408;59.388;17.798;2022-09-03T02:09:16;9.10;99.90
12688;DHT22;6408;59.388;17.798;2022-09-03T02:11:48;9.10;99.90
12688;DHT22;6408;59.388;17.798;2022-09-03T02:14:17;9.10;99.90
12688;DHT22;6408;59.388;17.798;2022-09-03T02:16:49;9.20;99.90
12688;DHT22;6408;59.388;17.798;2022-09-03T02:19:17;9.20;99.90
12688;DHT22;6408;59.388;17.798;2022-09-03T02:21:50;9.20;99.90
12688;DHT22;6408;59.388;17.798;2022-09-03T02:24:19;9.20;99.90
12688;DHT22;6408;59.388;17.798;2022-09-03T02:26:46;9.20;99.90
12688;DHT22;6408;59.388;17.798;2022-09-03T02:29:15;9.20;99.90
12688;DHT22;6408;59.388;17.798;2022-09-03T02:31:42;9.20;99.90
12688;DHT22;6408;59.388;17.798;2022-09-03T02:34:11;9.20;99.90
12688;DHT22;6408;59.388;17.798;2022-09-03T02:36:41;9.30;99.90
12688;DHT22;6408;59.388;17.798;2022-09-03T02:39:10;9.30;99.90
12688;DHT22;6408;59.388;17.798;2022-09-03T02:41:38;9.30;99.90
12688;DHT22;6408;59.388;17.798;2022-09-03T02:44:11;9.30;99.90
12688;DHT22;6408;59.388;17.798;2022-09-03T02:46:42;9.30;99.90
12688;DHT22;6408;59.388;17.798;2022-09-03T02:49:12;9.30;99.90
12688;DHT22;6408;59.388;17.798;2022-09-03T02:51:40;9.30;99.90
12688;DHT22;6408;59.388;17.798;2022-09-03T02:54:09;9.40;99.90
12688;DHT22;6408;59.388;17.798;2022-09-03T02:56:37;9.40;99.90
12688;DHT22;6408;59.388;17.798;2022-09-03T02:59:06;9.30;99.90
12688;DHT22;6408;59.388;17.798;2022-09-03T03:01:34;9.30;99.90
12688;DHT22;6408;59.388;17.798;2022-09-03T03:04:06;9.30;99.90
12688;DHT22;6408;59.388;17.798;2022-09-03T03:06:34;9.40;99.90
12688;DHT22;6408;59.388;17.798;2022-09-03T03:09:03;9.40;99.90
12688;DHT22;6408;59.388;17.798;2022-09-03T03:11:30;9.40;99.90
12688;DHT22;6408;59.388;17.798;2022-09-03T03:13:57;9.40;99.90
12688;DHT22;6408;59.388;17.798;2022-09-03T03:16:25;9.40;99.90
12688;DHT22;6408;59.388;17.798;2022-09-03T03:18:52;9.40;99.90
12688;DHT22;6408;59.388;17.798;2022-09-03T03:21:20;9.40;99.90
12688;DHT22;6408;59.388;17.798;2022-09-03T03:23:49;9.40;99.90
12688;DHT22;6408;59.388;17.798;2022-09-03T03:26:19;9.40;99.90
12688;DHT22;6408;59.388;17.798;2022-09-03T03:28:49;9.40;99.90
12688;DHT22;6408;59.388;17.798;2022-09-03T03:31:19;9.40;99.90
12688;DHT22;6408;59.388;17.798;2022-09-03T03:33:50;9.40;99.90
12688;DHT22;6408;59.388;17.798;2022-09-03T03:36:18;9.40;99.90
12688;DHT22;6408;59.388;17.798;2022-09-03T03:38:45;9.50;99.90
12688;DHT22;6408;59.388;17.798;2022-09-03T03:41:15;9.50;99.90
12688;DHT22;6408;59.388;17.798;2022-09-03T03:43:43;9.50;99.90
12688;DHT22;6408;59.388;17.798;2022-09-03T03:46:11;9.40;99.90
12688;DHT22;6408;59.388;17.798;2022-09-03T03:48:40;9.40;99.90
12688;DHT22;6408;59.388;17.798;2022-09-03T03:51:08;9.40;99.90
12688;DHT22;6408;59.388;17.798;2022-09-03T03:53:37;9.50;99.90
12688;DHT22;6408;59.388;17.798;2022-09-03T03:56:06;9.50;99.90
12688;DHT22;6408;59.388;17.798;2022-09-03T03:58:36;9.50;99.90
12688;DHT22;6408;59.388;17.798;2022-09-03T04:01:10;9.50;99.90
12688;DHT22;6408;59.388;17.798;2022-09-03T04:03:37;9.50;99.90
12688;DHT22;6408;59.388;17.798;2022-09-03T04:06:06;9.50;99.90
12688;DHT22;6408;59.388;17.798;2022-09-03T04:08:35;9.50;99.90
12688;DHT22;6408;59.388;17.798;2022-09-03T04:11:05;9.50;99.90
12688;DHT22;6408;59.388;17.798;2022-09-03T04:13:37;9.60;99.90
12688;DHT22;6408;59.388;17.798;2022-09-03T04:16:06;9.60;99.90
12688;DHT22;6408;59.388;17.798;2022-09-03T04:18:35;9.70;99.90
12688;DHT22;6408;59.388;17.798;2022-09-03T04:21:04;9.70;99.90
12688;DHT22;6408;59.388;17.798;2022-09-03T04:23:34;9.70;99.90
12688;DHT22;6408;59.388;17.798;2022-09-03T04:26:01;9.70;99.90
12688;DHT22;6408;59.388;17.798;2022-09-03T04:28:28;9.70;99.90
12688;DHT22;6408;59.388;17.798;2022-09-03T04:31:09;9.80;99.90
12688;DHT22;6408;59.388;17.798;2022-09-03T04:33:37;9.80;99.90
12688;DHT22;6408;59.388;17.798;2022-09-03T04:36:06;9.80;99.90
12688;DHT22;6408;59.388;17.798;2022-09-03T04:38:35;9.90;99.90
12688;DHT22;6408;59.388;17.798;2022-09-03T04:41:03;9.90;99.90
12688;DHT22;6408;59.388;17.798;2022-09-03T04:43:31;9.90;99.90
12688;DHT22;6408;59.388;17.798;2022-09-03T04:46:02;9.90;99.90
12688;DHT22;6408;59.388;17.798;2022-09-03T04:48:30;10.00;99.90
12688;DHT22;6408;59.388;17.798;2022-09-03T04:51:01;10.10;99.90
12688;DHT22;6408;59.388;17.798;2022-09-03T04:53:30;10.10;99.90
12688;DHT22;6408;59.388;17.798;2022-09-03T04:55:57;10.10;99.90
12688;DHT22;6408;59.388;17.798;2022-09-03T04:58:26;10.10;99.90
12688;DHT22;6408;59.388;17.798;2022-09-03T05:00:53;10.10;99.90
12688;DHT22;6408;59.388;17.798;2022-09-03T05:03:22;10.20;99.90
12688;DHT22;6408;59.388;17.798;2022-09-03T05:05:53;10.20;99.90
12688;DHT22;6408;59.388;17.798;2022-09-03T05:08:21;10.20;99.90
12688;DHT22;6408;59.388;17.798;2022-09-03T05:10:49;10.20;99.90
12688;DHT22;6408;59.388;17.798;2022-09-03T05:13:16;10.30;99.90
12688;DHT22;6408;59.388;17.798;2022-09-03T05:15:43;10.20;99.90
12688;DHT22;6408;59.388;17.798;2022-09-03T05:18:11;10.30;99.90
12688;DHT22;6408;59.388;17.798;2022-09-03T05:20:41;10.20;99.90
12688;DHT22;6408;59.388;17.798;2022-09-03T05:23:08;10.30;99.90
12688;DHT22;6408;59.388;17.798;2022-09-03T05:25:36;10.30;99.90
12688;DHT22;6408;59.388;17.798;2022-09-03T05:28:05;10.40;99.90
12688;DHT22;6408;59.388;17.798;2022-09-03T05:30:33;10.40;99.90
12688;DHT22;6408;59.388;17.798;2022-09-03T05:33:01;10.40;99.90
12688;DHT22;6408;59.388;17.798;2022-09-03T05:35:30;10.40;99.90
12688;DHT22;6408;59.388;17.798;2022-09-03T05:38:00;10.40;99.90
12688;DHT22;6408;59.388;17.798;2022-09-03T05:40:28;10.50;99.90
12688;DHT22;6408;59.388;17.798;2022-09-03T05:42:56;10.50;99.90
12688;DHT22;6408;59.388;17.798;2022-09-03T05:45:27;10.50;99.90
12688;DHT22;6408;59.388;17.798;2022-09-03T05:47:54;10.50;99.90
12688;DHT22;6408;59.388;17.798;2022-09-03T05:50:22;10.50;99.90
12688;DHT22;6408;59.388;17.798;2022-09-03T05:52:50;10.60;99.90
12688;DHT22;6408;59.388;17.798;2022-09-03T05:55:22;10.60;99.90
12688;DHT22;6408;59.388;17.798;2022-09-03T05:57:51;10.60;99.90
12688;DHT22;6408;59.388;17.798;2022-09-03T06:00:19;10.60;99.90
12688;DHT22;6408;59.388;17.798;2022-09-03T06:02:49;10.70;99.90
12688;DHT22;6408;59.388;17.798;2022-09-03T06:05:17;10.80;99.90
12688;DHT22;6408;59.388;17.798;2022-09-03T06:07:46;10.80;99.90
12688;DHT22;6408;59.388;17.798;2022-09-03T06:10:15;10.80;99.90
12688;DHT22;6408;59.388;17.798;2022-09-03T06:12:44;10.90;99.90
12688;DHT22;6408;59.388;17.798;2022-09-03T06:15:14;11.00;99.90
12688;DHT22;6408;59.388;17.798;2022-09-03T06:17:44;11.10;99.90
12688;DHT22;6408;59.388;17.798;2022-09-03T06:20:12;11.20;99.90
12688;DHT22;6408;59.388;17.798;2022-09-03T06:22:39;11.20;99.90
12688;DHT22;6408;59.388;17.798;2022-09-03T06:25:10;11.20;99.90
12688;DHT22;6408;59.388;17.798;2022-09-03T06:27:40;11.20;99.90
12688;DHT22;6408;59.388;17.798;2022-09-03T06:30:10;11.20;99.90
12688;DHT22;6408;59.388;17.798;2022-09-03T06:32:42;11.30;99.90
12688;DHT22;6408;59.388;17.798;2022-09-03T06:35:10;11.30;99.90
12688;DHT22;6408;59.388;17.798;2022-09-03T06:37:39;11.20;99.90
12688;DHT22;6408;59.388;17.798;2022-09-03T06:40:07;11.30;99.90
12688;DHT22;6408;59.388;17.798;2022-09-03T06:42:37;11.30;99.90
12688;DHT22;6408;59.388;17.798;2022-09-03T06:45:07;11.20;99.90
12688;DHT22;6408;59.388;17.798;2022-09-03T06:47:37;11.20;99.90
12688;DHT22;6408;59.388;17.798;2022-09-03T06:50:05;11.20;99.90
12688;DHT22;6408;59.388;17.798;2022-09-03T06:52:33;11.30;99.90
12688;DHT22;6408;59.388;17.798;2022-09-03T06:55:02;11.40;99.90
12688;DHT22;6408;59.388;17.798;2022-09-03T06:57:30;11.40;99.90
12688;DHT22;6408;59.388;17.798;2022-09-03T06:59:57;11.30;99.90
12688;DHT22;6408;59.388;17.798;2022-09-03T07:02:27;11.40;99.90
12688;DHT22;6408;59.388;17.798;2022-09-03T07:04:55;11.60;99.90
12688;DHT22;6408;59.388;17.798;2022-09-03T07:07:23;11.70;99.90
12688;DHT22;6408;59.388;17.798;2022-09-03T07:09:50;11.80;99.90
12688;DHT22;6408;59.388;17.798;2022-09-03T07:12:18;11.90;99.90
12688;DHT22;6408;59.388;17.798;2022-09-03T07:14:46;11.90;99.90
12688;DHT22;6408;59.388;17.798;2022-09-03T07:17:14;12.00;99.90
12688;DHT22;6408;59.388;17.798;2022-09-03T07:19:42;12.20;99.90
12688;DHT22;6408;59.388;17.798;2022-09-03T07:22:22;12.40;99.90
12688;DHT22;6408;59.388;17.798;2022-09-03T07:24:52;12.50;99.90
12688;DHT22;6408;59.388;17.798;2022-09-03T07:27:22;12.60;99.90
12688;DHT22;6408;59.388;17.798;2022-09-03T07:29:51;12.60;99.90
12688;DHT22;6408;59.388;17.798;2022-09-03T07:32:18;12.70;99.90
12688;DHT22;6408;59.388;17.798;2022-09-03T07:34:46;12.70;99.90
12688;DHT22;6408;59.388;17.798;2022-09-03T07:37:28;12.80;99.90
12688;DHT22;6408;59.388;17.798;2022-09-03T07:39:58;12.90;99.90
12688;DHT22;6408;59.388;17.798;2022-09-03T07:42:26;12.90;99.90
12688;DHT22;6408;59.388;17.798;2022-09-03T07:44:56;13.00;99.90
12688;DHT22;6408;59.388;17.798;2022-09-03T07:47:35;13.00;99.90
12688;DHT22;6408;59.388;17.798;2022-09-03T07:50:03;12.90;99.90
12688;DHT22;6408;59.388;17.798;2022-09-03T07:52:32;12.80;99.90
12688;DHT22;6408;59.388;17.798;2022-09-03T07:55:00;12.80;99.90
12688;DHT22;6408;59.388;17.798;2022-09-03T07:57:29;12.80;99.90
12688;DHT22;6408;59.388;17.798;2022-09-03T07:59:57;12.80;99.90
12688;DHT22;6408;59.388;17.798;2022-09-03T08:02:24;12.80;99.90
12688;DHT22;6408;59.388;17.798;2022-09-03T08:04:53;12.80;99.90
12688;DHT22;6408;59.388;17.798;2022-09-03T08:07:21;13.10;99.90
12688;DHT22;6408;59.388;17.798;2022-09-03T08:09:50;13.40;99.90
12688;DHT22;6408;59.388;17.798;2022-09-03T08:12:23;14.10;99.90
12688;DHT22;6408;59.388;17.798;2022-09-03T08:14:51;14.90;99.90
12688;DHT22;6408;59.388;17.798;2022-09-03T08:17:18;14.90;99.90
12688;DHT22;6408;59.388;17.798;2022-09-03T08:19:45;14.70;99.90
12688;DHT22;6408;59.388;17.798;2022-09-03T08:22:12;14.30;99.90
12688;DHT22;6408;59.388;17.798;2022-09-03T08:24:39;14.20;99.90
12688;DHT22;6408;59.388;17.798;2022-09-03T08:27:09;14.10;99.90
12688;DHT22;6408;59.388;17.798;2022-09-03T08:29:37;14.00;99.90
12688;DHT22;6408;59.388;17.798;2022-09-03T08:32:04;13.90;99.90
12688;DHT22;6408;59.388;17.798;2022-09-03T08:34:31;13.70;99.90
12688;DHT22;6408;59.388;17.798;2022-09-03T08:36:58;13.70;99.90
12688;DHT22;6408;59.388;17.798;2022-09-03T08:39:27;13.60;99.90
12688;DHT22;6408;59.388;17.798;2022-09-03T08:42:22;13.50;99.90
12688;DHT22;6408;59.388;17.798;2022-09-03T08:44:53;13.40;99.90
12688;DHT22;6408;59.388;17.798;2022-09-03T08:47:24;13.30;99.90
12688;DHT22;6408;59.388;17.798;2022-09-03T08:49:55;13.20;99.90
12688;DHT22;6408;59.388;17.798;2022-09-03T08:52:28;13.20;99.90
12688;DHT22;6408;59.388;17.798;2022-09-03T08:55:10;13.10;99.90
12688;DHT22;6408;59.388;17.798;2022-09-03T08:57:45;13.10;99.90
12688;DHT22;6408;59.388;17.798;2022-09-03T09:00:14;13.00;99.90
12688;DHT22;6408;59.388;17.798;2022-09-03T09:02:51;12.90;99.90
12688;DHT22;6408;59.388;17.798;2022-09-03T09:05:24;12.80;99.90
12688;DHT22;6408;59.388;17.798;2022-09-03T09:08:05;12.70;99.90
12688;DHT22;6408;59.388;17.798;2022-09-03T09:10:45;12.70;99.90
12688;DHT22;6408;59.388;17.798;2022-09-03T09:13:22;12.70;99.90
12688;DHT22;6408;59.388;17.798;2022-09-03T09:15:58;12.70;99.90
12688;DHT22;6408;59.388;17.798;2022-09-03T09:18:50;12.70;99.90
12688;DHT22;6408;59.388;17.798;2022-09-03T09:21:28;12.70;99.90
12688;DHT22;6408;59.388;17.798;2022-09-03T09:24:03;12.70;99.90
12688;DHT22;6408;59.388;17.798;2022-09-03T09:26:32;12.80;99.90
12688;DHT22;6408;59.388;17.798;2022-09-03T09:29:04;12.80;99.90
12688;DHT22;6408;59.388;17.798;2022-09-03T09:31:34;12.80;99.90
12688;DHT22;6408;59.388;17.798;2022-09-03T09:34:04;12.90;99.90
12688;DHT22;6408;59.388;17.798;2022-09-03T09:36:46;12.80;99.90
12688;DHT22;6408;59.388;17.798;2022-09-03T09:39:15;12.80;99.90
12688;DHT22;6408;59.388;17.798;2022-09-03T09:41:57;12.80;99.90
12688;DHT22;6408;59.388;17.798;2022-09-03T09:44:30;12.90;99.90
12688;DHT22;6408;59.388;17.798;2022-09-03T09:47:11;13.00;99.90
12688;DHT22;6408;59.388;17.798;2022-09-03T09:49:51;13.00;99.90
12688;DHT22;6408;59.388;17.798;2022-09-03T09:52:21;13.00;99.90
12688;DHT22;6408;59.388;17.798;2022-09-03T09:55:15;13.00;99.90
12688;DHT22;6408;59.388;17.798;2022-09-03T09:58:05;13.10;99.90
12688;DHT22;6408;59.388;17.798;2022-09-03T10:00:37;13.10;99.90
12688;DHT22;6408;59.388;17.798;2022-09-03T10:03:10;13.10;99.90
12688;DHT22;6408;59.388;17.798;2022-09-03T10:05:40;13.10;99.90
12688;DHT22;6408;59.388;17.798;2022-09-03T10:08:18;13.10;99.90
12688;DHT22;6408;59.388;17.798;2022-09-03T10:10:49;13.20;99.90
12688;DHT22;6408;59.388;17.798;2022-09-03T10:13:18;13.20;99.90
12688;DHT22;6408;59.388;17.798;2022-09-03T10:15:59;13.30;99.90
12688;DHT22;6408;59.388;17.798;2022-09-03T10:18:34;13.40;99.90
12688;DHT22;6408;59.388;17.798;2022-09-03T10:21:07;13.50;99.90
12688;DHT22;6408;59.388;17.798;2022-09-03T10:23:56;13.60;99.90
12688;DHT22;6408;59.388;17.798;2022-09-03T10:26:27;13.70;99.90
12688;DHT22;6408;59.388;17.798;2022-09-03T10:28:59;13.80;99.90
12688;DHT22;6408;59.388;17.798;2022-09-03T10:31:49;13.80;99.90
12688;DHT22;6408;59.388;17.798;2022-09-03T10:34:24;14.00;99.90
12688;DHT22;6408;59.388;17.798;2022-09-03T10:37:03;14.20;99.90
12688;DHT22;6408;59.388;17.798;2022-09-03T10:39:46;14.40;99.90
12688;DHT22;6408;59.388;17.798;2022-09-03T10:42:29;14.40;99.90
12688;DHT22;6408;59.388;17.798;2022-09-03T10:45:07;14.50;99.90
12688;DHT22;6408;59.388;17.798;2022-09-03T10:48:01;14.60;99.90
12688;DHT22;6408;59.388;17.798;2022-09-03T10:50:40;14.70;99.90
12688;DHT22;6408;59.388;17.798;2022-09-03T10:53:33;14.80;99.90
12688;DHT22;6408;59.388;17.798;2022-09-03T10:56:04;14.80;99.90
12688;DHT22;6408;59.388;17.798;2022-09-03T10:58:49;14.80;99.90
12688;DHT22;6408;59.388;17.798;2022-09-03T11:01:27;14.90;99.90
12688;DHT22;6408;59.388;17.798;2022-09-03T11:04:15;14.90;99.90
12688;DHT22;6408;59.388;17.798;2022-09-03T11:06:49;15.00;99.90
12688;DHT22;6408;59.388;17.798;2022-09-03T11:09:21;15.00;99.90
12688;DHT22;6408;59.388;17.798;2022-09-03T11:12:07;14.90;99.90
12688;DHT22;6408;59.388;17.798;2022-09-03T11:14:39;14.90;99.90
12688;DHT22;6408;59.388;17.798;2022-09-03T11:17:11;14.90;99.90
12688;DHT22;6408;59.388;17.798;2022-09-03T11:19:46;14.80;99.90
12688;DHT22;6408;59.388;17.798;2022-09-03T11:22:16;14.80;99.90
12688;DHT22;6408;59.388;17.798;2022-09-03T11:24:52;14.70;99.90
12688;DHT22;6408;59.388;17.798;2022-09-03T11:27:35;14.70;99.90
12688;DHT22;6408;59.388;17.798;2022-09-03T11:30:05;14.70;99.90
12688;DHT22;6408;59.388;17.798;2022-09-03T11:32:46;14.70;99.90
12688;DHT22;6408;59.388;17.798;2022-09-03T11:35:27;14.90;99.90
12688;DHT22;6408;59.388;17.798;2022-09-03T11:37:58;14.90;99.90
12688;DHT22;6408;59.388;17.798;2022-09-03T11:40:31;14.90;99.90
12688;DHT22;6408;59.388;17.798;2022-09-03T11:43:08;14.80;99.90
12688;DHT22;6408;59.388;17.798;2022-09-03T11:45:38;14.80;99.90
12688;DHT22;6408;59.388;17.798;2022-09-03T11:48:31;14.80;99.90
12688;DHT22;6408;59.388;17.798;2022-09-03T11:51:01;14.80;99.90
12688;DHT22;6408;59.388;17.798;2022-09-03T11:53:33;14.90;99.90
12688;DHT22;6408;59.388;17.798;2022-09-03T11:56:15;15.00;99.90
12688;DHT22;6408;59.388;17.798;2022-09-03T11:58:43;15.00;99.90
12688;DHT22;6408;59.388;17.798;2022-09-03T12:01:15;15.00;99.90
12688;DHT22;6408;59.388;17.798;2022-09-03T12:03:56;15.00;99.90
12688;DHT22;6408;59.388;17.798;2022-09-03T12:06:48;14.90;99.90
12688;DHT22;6408;59.388;17.798;2022-09-03T12:09:45;14.90;99.90
12688;DHT22;6408;59.388;17.798;2022-09-03T12:15:31;15.10;99.90
12688;DHT22;6408;59.388;17.798;2022-09-03T12:18:03;15.00;99.90
12688;DHT22;6408;59.388;17.798;2022-09-03T12:21:01;15.00;99.90
12688;DHT22;6408;59.388;17.798;2022-09-03T12:23:32;14.90;99.90
12688;DHT22;6408;59.388;17.798;2022-09-03T12:26:03;14.90;99.90
12688;DHT22;6408;59.388;17.798;2022-09-03T12:28:44;14.90;99.90
12688;DHT22;6408;59.388;17.798;2022-09-03T12:31:15;14.90;99.90
12688;DHT22;6408;59.388;17.798;2022-09-03T12:33:55;15.00;99.90
12688;DHT22;6408;59.388;17.798;2022-09-03T12:36:24;15.00;99.90
12688;DHT22;6408;59.388;17.798;2022-09-03T12:38:54;15.10;99.90
12688;DHT22;6408;59.388;17.798;2022-09-03T12:41:24;15.30;99.90
12688;DHT22;6408;59.388;17.798;2022-09-03T12:43:56;15.40;99.90
12688;DHT22;6408;59.388;17.798;2022-09-03T12:46:26;15.50;99.90
12688;DHT22;6408;59.388;17.798;2022-09-03T12:48:55;15.50;99.90
12688;DHT22;6408;59.388;17.798;2022-09-03T12:51:30;15.70;99.90
12688;DHT22;6408;59.388;17.798;2022-09-03T12:54:00;15.80;99.90
12688;DHT22;6408;59.388;17.798;2022-09-03T12:56:29;15.80;99.90
12688;DHT22;6408;59.388;17.798;2022-09-03T12:58:59;15.80;99.90
12688;DHT22;6408;59.388;17.798;2022-09-03T13:01:31;15.70;99.90
12688;DHT22;6408;59.388;17.798;2022-09-03T13:04:03;15.70;99.90
12688;DHT22;6408;59.388;17.798;2022-09-03T13:06:39;15.60;99.90
12688;DHT22;6408;59.388;17.798;2022-09-03T13:09:13;15.60;99.90
12688;DHT22;6408;59.388;17.798;2022-09-03T13:11:40;15.50;99.90
12688;DHT22;6408;59.388;17.798;2022-09-03T13:14:10;15.50;99.90
12688;DHT22;6408;59.388;17.798;2022-09-03T13:17:04;15.40;99.90
12688;DHT22;6408;59.388;17.798;2022-09-03T13:19:47;15.40;99.90
12688;DHT22;6408;59.388;17.798;2022-09-03T13:22:24;15.40;99.90
12688;DHT22;6408;59.388;17.798;2022-09-03T13:25:13;15.40;99.90
12688;DHT22;6408;59.388;17.798;2022-09-03T13:27:45;15.40;99.90
12688;DHT22;6408;59.388;17.798;2022-09-03T13:30:19;15.40;99.90
12688;DHT22;6408;59.388;17.798;2022-09-03T13:32:54;15.40;99.90
12688;DHT22;6408;59.388;17.798;2022-09-03T13:35:33;15.40;99.90
12688;DHT22;6408;59.388;17.798;2022-09-03T13:38:08;15.40;99.90
12688;DHT22;6408;59.388;17.798;2022-09-03T13:40:46;15.40;99.90
12688;DHT22;6408;59.388;17.798;2022-09-03T13:43:23;15.50;99.90
12688;DHT22;6408;59.388;17.798;2022-09-03T13:45:55;15.40;99.90
12688;DHT22;6408;59.388;17.798;2022-09-03T13:48:29;15.40;99.90
12688;DHT22;6408;59.388;17.798;2022-09-03T13:51:15;15.40;99.90
12688;DHT22;6408;59.388;17.798;2022-09-03T13:53:50;15.40;99.90
12688;DHT22;6408;59.388;17.798;2022-09-03T13:56:34;15.40;99.90
12688;DHT22;6408;59.388;17.798;2022-09-03T13:59:06;15.40;99.90
12688;DHT22;6408;59.388;17.798;2022-09-03T14:01:57;15.40;99.90
12688;DHT22;6408;59.388;17.798;2022-09-03T14:04:37;15.30;99.90
12688;DHT22;6408;59.388;17.798;2022-09-03T14:07:14;15.30;99.90
12688;DHT22;6408;59.388;17.798;2022-09-03T14:09:48;15.30;99.90
12688;DHT22;6408;59.388;17.798;2022-09-03T14:12:33;15.30;99.90
12688;DHT22;6408;59.388;17.798;2022-09-03T14:15:07;15.30;99.90
12688;DHT22;6408;59.388;17.798;2022-09-03T14:17:40;15.20;99.90
12688;DHT22;6408;59.388;17.798;2022-09-03T14:20:16;15.10;99.90
12688;DHT22;6408;59.388;17.798;2022-09-03T14:22:51;15.10;99.90
12688;DHT22;6408;59.388;17.798;2022-09-03T14:25:20;15.00;99.90
12688;DHT22;6408;59.388;17.798;2022-09-03T14:27:49;15.00;99.90
12688;DHT22;6408;59.388;17.798;2022-09-03T14:30:24;15.00;99.90
12688;DHT22;6408;59.388;17.798;2022-09-03T14:33:07;14.80;99.90
12688;DHT22;6408;59.388;17.798;2022-09-03T14:35:56;14.90;99.90
12688;DHT22;6408;59.388;17.798;2022-09-03T14:41:27;15.00;99.90
12688;DHT22;6408;59.388;17.798;2022-09-03T14:44:44;15.00;99.90
12688;DHT22;6408;59.388;17.798;2022-09-03T14:47:33;15.00;99.90
12688;DHT22;6408;59.388;17.798;2022-09-03T14:50:17;15.00;99.90
12688;DHT22;6408;59.388;17.798;2022-09-03T14:53:09;14.90;99.90
12688;DHT22;6408;59.388;17.798;2022-09-03T14:55:56;14.80;99.90
12688;DHT22;6408;59.388;17.798;2022-09-03T14:58:42;14.90;99.90
12688;DHT22;6408;59.388;17.798;2022-09-03T15:01:24;14.80;99.90
12688;DHT22;6408;59.388;17.798;2022-09-03T15:07:21;14.70;99.90
12688;DHT22;6408;59.388;17.798;2022-09-03T15:09:58;14.70;99.90
12688;DHT22;6408;59.388;17.798;2022-09-03T15:12:33;14.60;99.90
12688;DHT22;6408;59.388;17.798;2022-09-03T15:15:07;14.60;99.90
12688;DHT22;6408;59.388;17.798;2022-09-03T15:17:46;14.60;99.90
12688;DHT22;6408;59.388;17.798;2022-09-03T15:20:27;14.60;99.90
12688;DHT22;6408;59.388;17.798;2022-09-03T15:23:22;14.50;99.90
12688;DHT22;6408;59.388;17.798;2022-09-03T15:26:21;14.40;99.90
12688;DHT22;6408;59.388;17.798;2022-09-03T15:29:03;14.30;99.90
12688;DHT22;6408;59.388;17.798;2022-09-03T15:31:52;14.40;99.90
12688;DHT22;6408;59.388;17.798;2022-09-03T15:37:22;14.30;99.90
12688;DHT22;6408;59.388;17.798;2022-09-03T15:39:58;14.20;99.90
12688;DHT22;6408;59.388;17.798;2022-09-03T15:42:29;14.30;99.90
12688;DHT22;6408;59.388;17.798;2022-09-03T15:45:02;14.10;99.90
12688;DHT22;6408;59.388;17.798;2022-09-03T15:47:47;14.10;99.90
12688;DHT22;6408;59.388;17.798;2022-09-03T15:50:30;14.10;99.90
12688;DHT22;6408;59.388;17.798;2022-09-03T15:53:02;13.90;99.90
12688;DHT22;6408;59.388;17.798;2022-09-03T15:55:34;13.90;99.90
12688;DHT22;6408;59.388;17.798;2022-09-03T15:58:09;13.90;99.90
12688;DHT22;6408;59.388;17.798;2022-09-03T16:00:50;13.90;99.90
12688;DHT22;6408;59.388;17.798;2022-09-03T16:03:30;13.90;99.90
12688;DHT22;6408;59.388;17.798;2022-09-03T16:06:27;13.80;99.90
12688;DHT22;6408;59.388;17.798;2022-09-03T16:09:08;13.80;99.90
12688;DHT22;6408;59.388;17.798;2022-09-03T16:11:51;13.80;99.90
12688;DHT22;6408;59.388;17.798;2022-09-03T16:14:26;13.80;99.90
12688;DHT22;6408;59.388;17.798;2022-09-03T16:17:02;13.70;99.90
12688;DHT22;6408;59.388;17.798;2022-09-03T16:19:44;13.70;99.90
12688;DHT22;6408;59.388;17.798;2022-09-03T16:22:21;13.70;99.90
12688;DHT22;6408;59.388;17.798;2022-09-03T16:25:08;13.60;99.90
12688;DHT22;6408;59.388;17.798;2022-09-03T16:27:45;13.60;99.90
12688;DHT22;6408;59.388;17.798;2022-09-03T16:30:27;13.60;99.90
12688;DHT22;6408;59.388;17.798;2022-09-03T16:33:04;13.60;99.90
12688;DHT22;6408;59.388;17.798;2022-09-03T16:35:46;13.60;99.90
12688;DHT22;6408;59.388;17.798;2022-09-03T16:38:26;13.50;99.90